Time;durP1;ratioP1;P1;durP2;ratioP2;P2;SDS_P1;SDS_P2;PMS_P1;PMS_P2;Temp;Humidity;BMP_temperature;BMP_pressure;BME280_temperature;BME280_humidity;BME280_pressure;Samples;Min_cycle;Max_cycle;Signal;HPM_P1;HPM_P2
2024/03/13 00:00:27;;;;;;;13.80;2.28;;;12.10;99.90;;;;;;5044204;28;20064;-68
2024/03/13 00:02:54;;;;;;;14.60;2.08;;;12.00;99.90;;;;;;5040881;28;20080;-67
2024/03/13 00:05:21;;;;;;;14.05;4.03;;;12.10;99.90;;;;;;5045686;28;20118;-68
2024/03/13 00:07:51;;;;;;;12.50;2.28;;;12.10;99.90;;;;;;5026047;28;20065;-68
2024/03/13 00:10:18;;;;;;;13.98;2.95;;;12.10;99.90;;;;;;5035262;28;20049;-69
2024/03/13 00:12:45;;;;;;;10.20;2.60;;;12.10;99.90;;;;;;5040691;28;20056;-68
2024/03/13 00:15:12;;;;;;;13.27;2.78;;;12.10;99.90;;;;;;5043516;28;20057;-68
2024/03/13 00:17:38;;;;;;;9.65;2.42;;;12.10;99.90;;;;;;5043664;28;20064;-68
2024/03/13 00:20:11;;;;;;;14.40;2.78;;;12.10;99.90;;;;;;5043321;28;20303;-68
2024/03/13 00:22:40;;;;;;;11.98;2.65;;;12.10;99.90;;;;;;5040236;28;20053;-67
2024/03/13 00:25:14;;;;;;;15.32;3.03;;;12.10;99.90;;;;;;5048522;28;20045;-68
2024/03/13 00:27:41;;;;;;;15.30;2.47;;;12.10;99.90;;;;;;5040797;28;20037;-67
2024/03/13 00:30:09;;;;;;;16.70;2.92;;;12.10;99.90;;;;;;5047848;28;20122;-68
2024/03/13 00:32:36;;;;;;;17.20;2.58;;;12.10;99.90;;;;;;5055394;28;20598;-67
2024/03/13 00:35:04;;;;;;;11.35;3.42;;;12.10;99.90;;;;;;5047873;28;20056;-67
2024/03/13 00:37:31;;;;;;;13.10;2.50;;;12.10;99.90;;;;;;5047981;28;20061;-67
2024/03/13 00:39:58;;;;;;;13.40;3.40;;;12.10;99.90;;;;;;5045799;28;20037;-67
2024/03/13 00:42:25;;;;;;;16.23;3.28;;;12.10;99.90;;;;;;5047172;28;20049;-67
2024/03/13 00:44:53;;;;;;;12.88;2.60;;;12.10;99.90;;;;;;5044556;28;20045;-67
2024/03/13 00:47:22;;;;;;;14.18;2.92;;;12.00;99.90;;;;;;5046459;28;20424;-67
2024/03/13 00:49:53;;;;;;;18.92;3.95;;;12.10;99.90;;;;;;5046174;28;20500;-68
2024/03/13 00:52:20;;;;;;;14.63;3.22;;;12.00;99.90;;;;;;5045977;28;20053;-68
2024/03/13 00:54:47;;;;;;;27.92;6.63;;;12.00;99.90;;;;;;5045115;28;20052;-68
2024/03/13 00:57:17;;;;;;;18.55;3.78;;;12.00;99.90;;;;;;5042564;28;20057;-66
2024/03/13 00:59:44;;;;;;;16.90;3.63;;;12.00;99.90;;;;;;5043084;28;20135;-67
2024/03/13 01:02:12;;;;;;;21.83;3.97;;;12.00;99.90;;;;;;5056864;28;20055;-67
2024/03/13 01:04:39;;;;;;;17.25;3.72;;;12.00;99.90;;;;;;5045916;28;20045;-68
2024/03/13 01:07:06;;;;;;;17.20;3.40;;;12.00;99.90;;;;;;5046919;28;20057;-67
2024/03/13 01:09:34;;;;;;;16.75;3.58;;;12.00;99.90;;;;;;5043520;28;20132;-67
2024/03/13 01:12:02;;;;;;;20.95;3.22;;;12.00;99.90;;;;;;5045285;28;20080;-67
2024/03/13 01:14:29;;;;;;;19.23;4.00;;;12.00;99.90;;;;;;5048289;28;20057;-67
2024/03/13 01:16:58;;;;;;;17.90;2.45;;;12.00;99.90;;;;;;5045595;28;20053;-67
2024/03/13 01:19:30;;;;;;;12.57;2.65;;;12.00;99.90;;;;;;5056021;28;20483;-67
2024/03/13 01:22:04;;;;;;;21.95;3.30;;;12.00;99.90;;;;;;5045052;28;20049;-67
2024/03/13 01:24:32;;;;;;;15.85;2.20;;;12.00;99.90;;;;;;5042907;28;20513;-67
2024/03/13 01:27:00;;;;;;;9.32;2.47;;;12.00;99.90;;;;;;5046820;28;20132;-67
2024/03/13 01:29:26;;;;;;;16.33;2.85;;;12.00;99.90;;;;;;5049271;28;20045;-67
2024/03/13 01:31:57;;;;;;;16.77;2.78;;;11.90;99.90;;;;;;5054900;28;20554;-67
2024/03/13 01:34:24;;;;;;;11.95;2.58;;;11.90;99.90;;;;;;5055901;28;20049;-67
2024/03/13 01:39:37;;;;;;;16.80;2.83;;;11.90;99.90;;;;;;5045039;28;20476;-67
2024/03/13 01:56:21;;;;;;;18.17;2.05;;;11.90;99.90;;;;;;5045005;28;20507;-67
2024/03/13 01:58:51;;;;;;;12.68;2.05;;;11.90;99.90;;;;;;5035236;28;20508;-67
2024/03/13 02:04:04;;;;;;;23.15;3.22;;;11.90;99.90;;;;;;5043435;28;20049;-68
2024/03/13 02:06:31;;;;;;;11.50;2.17;;;11.90;99.90;;;;;;5044915;28;20094;-68
2024/03/13 02:08:58;;;;;;;15.13;2.80;;;11.90;99.90;;;;;;5045063;28;20115;-68
2024/03/13 02:11:25;;;;;;;13.48;2.05;;;11.90;99.90;;;;;;5045241;28;20498;-67
2024/03/13 02:13:52;;;;;;;10.65;2.30;;;11.80;99.90;;;;;;5052182;28;20048;-67
2024/03/13 02:16:20;;;;;;;8.50;2.33;;;11.80;99.90;;;;;;5045481;28;20049;-67
2024/03/13 02:18:50;;;;;;;13.38;2.35;;;11.80;99.90;;;;;;5046361;28;20044;-67
2024/03/13 02:21:17;;;;;;;12.35;2.53;;;11.80;99.90;;;;;;5045837;28;20037;-67
2024/03/13 02:23:44;;;;;;;12.85;2.63;;;11.80;99.90;;;;;;5044093;28;20099;-67
2024/03/13 02:26:11;;;;;;;10.60;1.67;;;11.80;99.90;;;;;;5042769;28;20049;-68
2024/03/13 02:28:38;;;;;;;9.98;1.73;;;11.80;99.90;;;;;;5044831;28;20106;-66
2024/03/13 02:31:08;;;;;;;14.27;1.98;;;11.80;99.90;;;;;;5046365;28;20114;-66
2024/03/13 02:33:38;;;;;;;11.25;1.92;;;11.80;99.90;;;;;;5041730;28;20106;-68
2024/03/13 02:36:05;;;;;;;11.60;2.60;;;11.80;99.90;;;;;;5045653;28;20347;-67
2024/03/13 02:38:32;;;;;;;14.85;1.83;;;11.80;99.90;;;;;;5044139;28;20045;-66
2024/03/13 02:40:59;;;;;;;10.20;1.88;;;11.80;99.90;;;;;;5036980;28;20049;-67
2024/03/13 02:43:26;;;;;;;13.43;2.15;;;11.80;99.90;;;;;;5040631;28;20110;-67
2024/03/13 02:45:53;;;;;;;13.38;1.90;;;11.80;99.90;;;;;;5045054;28;20635;-67
2024/03/13 02:48:20;;;;;;;8.18;1.63;;;11.80;99.90;;;;;;5043488;28;20045;-66
2024/03/13 02:50:47;;;;;;;9.95;1.88;;;11.80;99.90;;;;;;5042522;28;20052;-67
2024/03/13 02:53:13;;;;;;;10.45;2.03;;;11.80;99.90;;;;;;5042963;28;20051;-67
2024/03/13 02:55:43;;;;;;;9.52;1.60;;;11.80;99.90;;;;;;5044852;28;20291;-66
2024/03/13 02:58:11;;;;;;;10.00;1.30;;;11.80;99.90;;;;;;5045127;28;20157;-67
2024/03/13 03:00:39;;;;;;;8.27;1.40;;;11.80;99.90;;;;;;5031584;28;20053;-67
2024/03/13 03:03:11;;;;;;;13.65;1.60;;;11.80;99.90;;;;;;5044197;28;20446;-67
2024/03/13 03:05:37;;;;;;;13.18;1.42;;;11.80;99.90;;;;;;5038507;28;20112;-67
2024/03/13 03:08:04;;;;;;;9.18;2.15;;;11.80;99.90;;;;;;5043805;28;20855;-67
2024/03/13 03:10:31;;;;;;;7.53;1.40;;;11.80;99.90;;;;;;5044677;28;20539;-68
2024/03/13 03:12:58;;;;;;;7.20;1.20;;;11.70;99.90;;;;;;5042951;28;20044;-68
2024/03/13 03:15:28;;;;;;;8.70;2.03;;;11.70;99.90;;;;;;5041675;28;20057;-66
2024/03/13 03:17:55;;;;;;;7.78;1.40;;;11.80;99.90;;;;;;5043397;28;20218;-68
2024/03/13 03:20:23;;;;;;;15.15;2.13;;;11.80;99.90;;;;;;5045279;28;20041;-68
2024/03/13 03:22:50;;;;;;;7.95;1.92;;;11.70;99.90;;;;;;5043012;28;20430;-68
2024/03/13 03:25:16;;;;;;;10.20;1.83;;;11.70;99.90;;;;;;5043284;28;20451;-68
2024/03/13 03:27:44;;;;;;;12.63;2.00;;;11.70;99.90;;;;;;5034243;28;20045;-68
2024/03/13 03:30:14;;;;;;;8.10;1.20;;;11.70;99.90;;;;;;5044779;28;20053;-68
2024/03/13 03:32:41;;;;;;;9.00;1.50;;;11.70;99.90;;;;;;5044319;28;20095;-69
2024/03/13 03:35:10;;;;;;;6.68;1.30;;;11.60;99.90;;;;;;5043008;28;20045;-66
2024/03/13 03:37:38;;;;;;;6.05;1.38;;;11.60;99.90;;;;;;5040799;28;20075;-66
2024/03/13 03:40:08;;;;;;;13.40;2.72;;;11.60;99.90;;;;;;5043122;28;20068;-68
2024/03/13 03:42:35;;;;;;;7.15;1.45;;;11.60;99.90;;;;;;5042729;28;20130;-66
2024/03/13 03:45:03;;;;;;;9.82;1.25;;;11.60;99.90;;;;;;5044007;28;20254;-69
2024/03/13 03:47:30;;;;;;;6.43;1.00;;;11.60;99.90;;;;;;5051066;28;20076;-67
2024/03/13 03:49:57;;;;;;;9.02;1.65;;;11.60;99.90;;;;;;5042899;28;20055;-67
2024/03/13 03:52:24;;;;;;;5.07;1.05;;;11.60;99.90;;;;;;5043699;28;20053;-68
2024/03/13 03:54:51;;;;;;;6.63;1.90;;;11.50;99.90;;;;;;5041121;28;20041;-67
2024/03/13 03:57:19;;;;;;;7.35;1.17;;;11.60;99.90;;;;;;5039523;28;20059;-66
2024/03/13 03:59:46;;;;;;;8.65;1.45;;;11.50;99.90;;;;;;5040815;28;20127;-66
2024/03/13 04:02:16;;;;;;;4.60;1.20;;;11.60;99.90;;;;;;5044349;28;20487;-67
2024/03/13 04:04:43;;;;;;;8.05;1.23;;;11.60;99.90;;;;;;5039998;28;20098;-67
2024/03/13 04:07:13;;;;;;;10.45;1.13;;;11.60;99.90;;;;;;5040417;28;20522;-67
2024/03/13 04:09:40;;;;;;;6.20;1.45;;;11.60;99.90;;;;;;5048952;28;20057;-66
2024/03/13 04:12:07;;;;;;;9.43;1.33;;;11.60;99.90;;;;;;5046222;28;20483;-69
2024/03/13 04:14:35;;;;;;;9.82;1.25;;;11.60;99.90;;;;;;5046044;28;20536;-67
2024/03/13 04:17:02;;;;;;;10.98;1.67;;;11.60;99.90;;;;;;5047848;28;20060;-67
2024/03/13 04:19:29;;;;;;;7.03;1.50;;;11.50;99.90;;;;;;5046562;28;20571;-67
2024/03/13 04:21:58;;;;;;;4.13;1.00;;;11.50;99.90;;;;;;5047664;28;20080;-67
2024/03/13 04:24:25;;;;;;;8.35;0.98;;;11.60;99.90;;;;;;5043671;28;20048;-66
2024/03/13 04:26:52;;;;;;;8.35;1.65;;;11.60;99.90;;;;;;5041539;28;20049;-67
2024/03/13 04:29:21;;;;;;;5.88;1.13;;;11.60;99.90;;;;;;5048316;28;20103;-67
2024/03/13 04:31:57;;;;;;;4.97;1.27;;;11.60;99.90;;;;;;5042065;28;20740;-67
2024/03/13 04:34:24;;;;;;;5.07;1.10;;;11.80;99.90;;;;;;5047199;28;20048;-67
2024/03/13 04:36:51;;;;;;;8.48;0.90;;;11.60;99.90;;;;;;5045303;28;20048;-67
2024/03/13 04:39:18;;;;;;;4.95;1.10;;;11.50;99.90;;;;;;5047822;28;20341;-67
2024/03/13 04:41:45;;;;;;;6.40;1.00;;;11.50;99.90;;;;;;5047099;28;20045;-67
2024/03/13 04:44:12;;;;;;;5.13;0.98;;;11.50;99.90;;;;;;5048467;28;20037;-67
2024/03/13 04:46:39;;;;;;;4.45;1.00;;;11.50;99.90;;;;;;5043787;28;20049;-68
2024/03/13 04:49:10;;;;;;;2.33;0.75;;;11.50;99.90;;;;;;5047569;28;20103;-68
2024/03/13 04:51:37;;;;;;;6.88;1.10;;;11.50;99.90;;;;;;5044026;28;20079;-67
2024/03/13 04:54:06;;;;;;;3.25;0.65;;;11.50;99.90;;;;;;5047440;28;20492;-68
2024/03/13 04:56:34;;;;;;;6.13;1.00;;;11.60;99.90;;;;;;5045623;28;20095;-66
2024/03/13 04:59:00;;;;;;;4.68;0.68;;;11.50;99.90;;;;;;5046611;28;20053;-68
2024/03/13 05:01:27;;;;;;;3.45;0.60;;;11.50;99.90;;;;;;5047503;28;20622;-68
2024/03/13 05:03:54;;;;;;;9.70;1.73;;;11.60;99.90;;;;;;5046687;28;20491;-68
2024/03/13 05:06:21;;;;;;;2.42;0.65;;;11.60;99.90;;;;;;5047143;28;20227;-66
2024/03/13 05:08:48;;;;;;;3.35;1.05;;;11.60;99.90;;;;;;5045626;28;20086;-68
2024/03/13 05:11:17;;;;;;;2.05;0.77;;;11.60;99.90;;;;;;5041821;28;20098;-68
2024/03/13 05:13:47;;;;;;;6.05;0.70;;;11.60;99.90;;;;;;5044914;28;20055;-68
2024/03/13 05:16:15;;;;;;;7.18;1.17;;;11.60;99.90;;;;;;5043874;28;20052;-67
2024/03/13 05:18:43;;;;;;;3.67;0.90;;;11.60;99.90;;;;;;5047111;28;20048;-68
2024/03/13 05:21:12;;;;;;;3.15;0.70;;;11.60;99.90;;;;;;5036021;28;20049;-67
2024/03/13 05:23:39;;;;;;;3.72;0.70;;;11.60;99.90;;;;;;5046677;28;20071;-67
2024/03/13 05:26:06;;;;;;;4.60;1.10;;;11.60;99.90;;;;;;5042360;28;20045;-68
2024/03/13 05:28:33;;;;;;;10.73;0.93;;;11.60;99.90;;;;;;5045242;28;20118;-69
2024/03/13 05:31:00;;;;;;;2.50;1.30;;;11.60;99.90;;;;;;5042413;28;20515;-68
2024/03/13 05:33:27;;;;;;;5.18;1.55;;;11.50;99.90;;;;;;5045444;28;20136;-68
2024/03/13 05:35:54;;;;;;;2.25;0.63;;;11.60;99.90;;;;;;5036518;28;20151;-68
2024/03/13 05:38:20;;;;;;;7.82;1.52;;;11.50;99.90;;;;;;5046367;28;20090;-66
2024/03/13 05:40:48;;;;;;;2.38;0.60;;;11.50;99.90;;;;;;5047294;28;20056;-67
2024/03/13 05:43:15;;;;;;;5.78;1.77;;;11.50;99.90;;;;;;5041459;28;20049;-67
2024/03/13 05:45:45;;;;;;;6.10;0.85;;;11.50;99.90;;;;;;5040245;28;20060;-66
2024/03/13 05:48:12;;;;;;;5.65;0.68;;;11.50;99.90;;;;;;5038303;28;20128;-66
2024/03/13 05:50:39;;;;;;;2.83;1.35;;;11.50;99.90;;;;;;5044010;28;20130;-67
2024/03/13 05:53:05;;;;;;;7.03;1.27;;;11.50;99.90;;;;;;5044473;28;20526;-66
2024/03/13 05:55:32;;;;;;;5.47;1.42;;;11.50;99.90;;;;;;5045222;28;20048;-66
2024/03/13 05:57:59;;;;;;;5.55;2.03;;;11.60;99.90;;;;;;5025166;28;20178;-66
2024/03/13 06:00:27;;;;;;;4.00;1.00;;;11.50;99.90;;;;;;5044420;28;20081;-67
2024/03/13 06:02:54;;;;;;;6.75;1.30;;;11.60;99.90;;;;;;5049149;28;20474;-66
2024/03/13 06:05:21;;;;;;;7.65;1.40;;;11.60;99.90;;;;;;5046034;28;20041;-66
2024/03/13 06:07:55;;;;;;;2.25;1.08;;;11.50;99.90;;;;;;5046069;28;20124;-66
2024/03/13 06:10:22;;;;;;;5.38;1.17;;;11.50;99.90;;;;;;5046262;28;20049;-65
2024/03/13 06:12:49;;;;;;;5.70;1.33;;;11.50;99.90;;;;;;5046017;28;20130;-67
2024/03/13 06:15:16;;;;;;;9.00;1.48;;;11.50;99.90;;;;;;5045331;28;20492;-68
2024/03/13 06:17:45;;;;;;;6.88;1.60;;;11.50;99.90;;;;;;5037528;28;20103;-67
2024/03/13 06:20:17;;;;;;;10.40;2.45;;;11.50;99.90;;;;;;5044712;28;20098;-68
2024/03/13 06:22:45;;;;;;;4.82;1.35;;;11.50;99.90;;;;;;5045753;28;20130;-67
2024/03/13 06:25:13;;;;;;;7.50;1.70;;;11.50;99.90;;;;;;5047110;28;20056;-67
2024/03/13 06:27:40;;;;;;;5.35;2.08;;;11.50;99.90;;;;;;5052566;28;20060;-67
2024/03/13 06:30:08;;;;;;;9.25;1.40;;;11.50;99.90;;;;;;5044242;28;20100;-66
2024/03/13 06:32:36;;;;;;;8.70;2.00;;;11.50;99.90;;;;;;5046575;28;20110;-66
2024/03/13 06:35:04;;;;;;;7.82;1.48;;;11.50;99.90;;;;;;5041862;28;20049;-67
2024/03/13 06:37:34;;;;;;;10.57;1.75;;;11.50;99.90;;;;;;5046637;28;20137;-67
2024/03/13 06:40:03;;;;;;;8.45;1.85;;;11.50;99.90;;;;;;5045543;28;20148;-67
2024/03/13 06:42:31;;;;;;;11.02;1.80;;;11.50;99.90;;;;;;5048095;28;20531;-67
2024/03/13 06:44:58;;;;;;;5.88;2.35;;;11.50;99.90;;;;;;5045756;28;20069;-67
2024/03/13 06:47:25;;;;;;;12.10;1.80;;;11.50;99.90;;;;;;5042607;28;20049;-67
2024/03/13 06:49:52;;;;;;;4.00;1.35;;;11.50;99.90;;;;;;5047327;28;20076;-67
2024/03/13 06:52:19;;;;;;;9.98;2.00;;;11.50;99.90;;;;;;5047548;28;20048;-68
2024/03/13 06:54:46;;;;;;;8.93;2.30;;;11.50;99.90;;;;;;5046428;28;20479;-68
2024/03/13 06:57:13;;;;;;;11.88;2.95;;;11.50;99.90;;;;;;5045457;28;20079;-67
2024/03/13 06:59:44;;;;;;;19.42;2.63;;;11.60;99.90;;;;;;5036475;28;20060;-67
2024/03/13 07:02:14;;;;;;;13.30;2.47;;;11.60;99.90;;;;;;5043691;28;20773;-67
2024/03/13 07:04:42;;;;;;;10.73;2.33;;;11.60;99.90;;;;;;5045021;28;20110;-68
2024/03/13 07:07:10;;;;;;;12.80;2.42;;;11.60;99.90;;;;;;5044848;28;20045;-68
2024/03/13 07:09:37;;;;;;;9.93;2.03;;;11.60;99.90;;;;;;5040357;28;20081;-68
2024/03/13 07:12:04;;;;;;;14.00;2.40;;;11.60;99.90;;;;;;5039191;28;20056;-68
2024/03/13 07:14:31;;;;;;;9.70;2.42;;;11.60;99.90;;;;;;5043053;28;20188;-68
2024/03/13 07:16:58;;;;;;;6.75;2.03;;;11.60;99.90;;;;;;5044480;28;20152;-68
2024/03/13 07:19:25;;;;;;;12.55;2.42;;;11.60;99.90;;;;;;5044486;28;20053;-69
2024/03/13 07:21:52;;;;;;;7.82;1.88;;;11.70;99.90;;;;;;5040809;28;20049;-69
2024/03/13 07:24:19;;;;;;;9.30;1.80;;;11.60;99.90;;;;;;5044516;28;20045;-69
2024/03/13 07:26:46;;;;;;;6.53;2.20;;;11.70;99.90;;;;;;5042332;28;20045;-68
2024/03/13 07:29:13;;;;;;;7.47;2.10;;;11.70;99.90;;;;;;5045016;28;20053;-68
2024/03/13 07:31:40;;;;;;;9.88;2.83;;;11.70;99.90;;;;;;5040924;28;20053;-70
2024/03/13 07:34:09;;;;;;;11.27;2.55;;;11.70;99.90;;;;;;5040230;28;20107;-66
2024/03/13 07:36:38;;;;;;;13.40;3.08;;;11.70;99.90;;;;;;5041135;28;20041;-68
2024/03/13 07:39:10;;;;;;;10.50;2.70;;;11.70;99.90;;;;;;5045283;28;20053;-70
2024/03/13 07:41:39;;;;;;;9.52;2.47;;;11.70;99.90;;;;;;5041709;28;20041;-69
2024/03/13 07:44:11;;;;;;;7.30;2.20;;;11.70;99.90;;;;;;5043410;28;20498;-69
2024/03/13 07:46:39;;;;;;;3.90;2.40;;;11.70;99.90;;;;;;5046050;28;20578;-69
2024/03/13 07:49:06;;;;;;;10.52;2.85;;;11.70;99.90;;;;;;5045408;28;20070;-68
2024/03/13 07:51:33;;;;;;;8.77;2.15;;;11.80;99.90;;;;;;5046096;28;20057;-68
2024/03/13 07:54:01;;;;;;;9.68;2.55;;;11.80;99.90;;;;;;5035993;28;20068;-68
2024/03/13 07:56:28;;;;;;;3.65;1.70;;;11.80;99.90;;;;;;5041989;28;20075;-68
2024/03/13 07:58:55;;;;;;;9.98;1.70;;;11.90;99.90;;;;;;5031473;28;20050;-68
2024/03/13 08:01:24;;;;;;;14.50;2.55;;;11.90;99.90;;;;;;5044650;28;20075;-65
2024/03/13 08:03:52;;;;;;;10.15;2.13;;;11.90;99.90;;;;;;5042394;28;20302;-67
2024/03/13 08:06:19;;;;;;;9.57;1.58;;;11.90;99.90;;;;;;5037637;28;20057;-67
2024/03/13 08:09:03;;;;;;;3.10;1.23;;;11.90;99.90;;;;;;5046448;28;20040;-66
2024/03/13 08:11:47;;;;;;;9.70;1.58;;;11.90;99.90;;;;;;5044004;28;20101;-65
2024/03/13 08:14:34;;;;;;;;;;;11.90;99.90;;;;;;5045734;28;20475;-66
2024/03/13 08:17:18;;;;;;;7.00;1.63;;;12.00;99.90;;;;;;5046761;28;19974;-66
2024/03/13 08:20:02;;;;;;;6.47;1.17;;;12.00;99.90;;;;;;5038935;28;20557;-67
2024/03/13 08:22:47;;;;;;;6.03;1.10;;;12.00;99.90;;;;;;5039320;28;20424;-70
2024/03/13 08:25:31;;;;;;;;;;;12.00;99.90;;;;;;5042944;28;20091;-67
2024/03/13 08:28:15;;;;;;;7.07;0.90;;;12.10;99.90;;;;;;5032638;28;20166;-66
2024/03/13 08:30:59;;;;;;;;;;;12.10;99.90;;;;;;5048221;28;20082;-67
2024/03/13 08:33:43;;;;;;;9.68;1.77;;;12.00;99.90;;;;;;5043967;28;20171;-68
2024/03/13 08:36:28;;;;;;;2.67;0.80;;;12.00;99.90;;;;;;5036335;28;20039;-68
2024/03/13 08:39:12;;;;;;;6.78;1.60;;;12.00;99.90;;;;;;5040283;28;20056;-68
2024/03/13 08:41:57;;;;;;;;;;;12.10;99.90;;;;;;5041716;28;20163;-66
2024/03/13 08:44:42;;;;;;;4.65;1.10;;;12.00;99.90;;;;;;5047876;28;20219;-68
2024/03/13 08:47:29;;;;;;;5.07;1.13;;;12.10;99.90;;;;;;5044562;28;20040;-67
2024/03/13 08:50:15;;;;;;;7.63;1.00;;;12.10;99.90;;;;;;5043359;28;20094;-67
2024/03/13 08:53:01;;;;;;;3.60;0.80;;;12.10;99.90;;;;;;5044024;28;20045;-68
2024/03/13 08:55:45;;;;;;;6.95;1.38;;;12.10;99.90;;;;;;5043776;28;20087;-67
2024/03/13 08:58:29;;;;;;;12.90;1.58;;;12.20;99.90;;;;;;5052896;28;20437;-67
2024/03/13 09:01:13;;;;;;;6.35;1.63;;;12.10;99.90;;;;;;5048014;28;20146;-68
2024/03/13 09:03:58;;;;;;;4.10;0.80;;;12.20;99.90;;;;;;5039664;28;20085;-68
2024/03/13 09:06:43;;;;;;;6.65;0.90;;;12.20;99.90;;;;;;5049280;28;20067;-67
2024/03/13 09:09:10;;;;;;;4.40;1.20;;;12.20;99.90;;;;;;5047210;28;21066;-67
2024/03/13 09:11:36;;;;;;;2.38;0.80;;;12.20;99.90;;;;;;5058759;28;20060;-67
2024/03/13 09:14:07;;;;;;;7.93;1.20;;;12.30;99.90;;;;;;5047186;28;20412;-67
2024/03/13 09:16:35;;;;;;;6.72;0.82;;;12.20;99.90;;;;;;5048406;28;20048;-67
2024/03/13 09:19:03;;;;;;;5.05;0.90;;;12.20;99.90;;;;;;5048567;28;21125;-67
2024/03/13 09:21:31;;;;;;;9.40;3.20;;;12.20;99.90;;;;;;5046392;28;20048;-69
2024/03/13 09:23:58;;;;;;;5.72;1.15;;;12.30;99.90;;;;;;5047734;28;20077;-66
2024/03/13 09:26:25;;;;;;;4.10;0.98;;;12.30;99.90;;;;;;5049217;28;20136;-65
2024/03/13 09:28:53;;;;;;;2.13;0.98;;;12.20;99.90;;;;;;5047919;28;20053;-66
2024/03/13 09:31:24;;;;;;;4.65;0.80;;;12.30;99.90;;;;;;5045440;28;20037;-66
2024/03/13 09:33:51;;;;;;;6.47;0.90;;;12.30;99.90;;;;;;5047403;28;20049;-66
2024/03/13 09:36:18;;;;;;;6.97;0.93;;;12.30;99.90;;;;;;5043427;28;20045;-67
2024/03/13 09:38:45;;;;;;;5.93;1.02;;;12.30;99.90;;;;;;5044921;28;20049;-66
2024/03/13 09:41:15;;;;;;;4.68;0.90;;;12.30;99.90;;;;;;5039569;28;20057;-67
2024/03/13 09:43:42;;;;;;;6.13;1.10;;;12.30;99.90;;;;;;5043169;28;20708;-66
2024/03/13 09:46:09;;;;;;;9.88;1.65;;;12.20;99.90;;;;;;5046098;28;20397;-66
2024/03/13 09:48:39;;;;;;;5.18;1.30;;;12.20;99.90;;;;;;5047393;28;20060;-66
2024/03/13 09:51:06;;;;;;;6.75;1.00;;;12.20;99.90;;;;;;5045636;28;20072;-66
2024/03/13 09:53:40;;;;;;;1.65;0.60;;;12.30;99.90;;;;;;5045804;28;20052;-66
2024/03/13 09:56:13;;;;;;;7.05;1.02;;;12.30;99.90;;;;;;5045846;28;20051;-66
2024/03/13 09:58:44;;;;;;;5.80;0.90;;;12.20;99.90;;;;;;5046454;28;20051;-66
2024/03/13 10:01:15;;;;;;;18.08;1.58;;;12.20;99.90;;;;;;5036953;28;20071;-66
2024/03/13 10:03:44;;;;;;;7.22;0.95;;;12.20;99.90;;;;;;5047531;28;20051;-67
2024/03/13 10:06:11;;;;;;;3.22;1.10;;;12.20;99.90;;;;;;5047548;28;20064;-67
2024/03/13 10:08:41;;;;;;;6.10;1.45;;;12.30;99.90;;;;;;5046969;28;20970;-67
2024/03/13 10:11:09;;;;;;;4.38;0.98;;;12.40;99.90;;;;;;5046816;28;20041;-66
2024/03/13 10:13:38;;;;;;;10.98;1.20;;;12.40;99.90;;;;;;5042144;28;20063;-66
2024/03/13 10:16:06;;;;;;;5.47;1.15;;;12.40;99.90;;;;;;5059040;28;20050;-66
2024/03/13 10:18:33;;;;;;;7.07;1.17;;;12.40;99.90;;;;;;5042293;28;20053;-66
2024/03/13 10:21:12;;;;;;;7.40;1.60;;;12.50;99.90;;;;;;5045433;28;20220;-66
2024/03/13 10:23:44;;;;;;;11.55;1.58;;;12.40;99.90;;;;;;5044157;28;20136;-67
2024/03/13 10:26:12;;;;;;;7.13;1.83;;;12.40;99.90;;;;;;5043365;28;20099;-67
2024/03/13 10:28:38;;;;;;;11.55;1.30;;;12.40;99.90;;;;;;5028986;28;20049;-65
2024/03/13 10:31:05;;;;;;;7.93;1.23;;;12.50;99.90;;;;;;5044465;28;20044;-66
2024/03/13 10:33:32;;;;;;;10.38;2.13;;;12.50;99.90;;;;;;5045402;28;20049;-66
2024/03/13 10:35:59;;;;;;;8.13;1.45;;;12.50;99.90;;;;;;5047048;28;20069;-66
2024/03/13 10:38:26;;;;;;;13.40;2.05;;;12.50;99.90;;;;;;5045069;28;20101;-66
2024/03/13 10:40:53;;;;;;;9.73;1.70;;;12.50;99.90;;;;;;5043631;28;20052;-67
2024/03/13 10:43:20;;;;;;;5.18;1.02;;;12.50;99.90;;;;;;5043982;28;20128;-66
2024/03/13 10:45:49;;;;;;;13.85;1.52;;;12.60;99.90;;;;;;5045104;28;20534;-66
2024/03/13 10:48:16;;;;;;;11.60;1.77;;;12.60;99.90;;;;;;5041031;28;20543;-66
2024/03/13 10:50:44;;;;;;;12.52;1.88;;;12.60;99.90;;;;;;5036656;28;20044;-66
2024/03/13 10:53:11;;;;;;;9.30;2.10;;;12.60;99.90;;;;;;5046135;28;20056;-66
2024/03/13 10:55:38;;;;;;;7.43;1.50;;;12.50;99.90;;;;;;5046458;28;20091;-67
2024/03/13 10:58:04;;;;;;;11.30;1.55;;;12.50;99.90;;;;;;5046333;28;20049;-67
2024/03/13 11:00:31;;;;;;;11.57;1.55;;;12.50;99.90;;;;;;5042219;28;20198;-67
2024/03/13 11:02:58;;;;;;;5.72;1.75;;;12.50;99.90;;;;;;5045864;28;20048;-68
2024/03/13 11:05:25;;;;;;;4.03;1.27;;;12.50;99.90;;;;;;5042893;28;20049;-66
2024/03/13 11:07:52;;;;;;;7.65;1.55;;;12.40;99.90;;;;;;5044456;28;20048;-67
2024/03/13 11:10:22;;;;;;;6.95;1.30;;;12.40;99.90;;;;;;5044980;28;20580;-67
2024/03/13 11:12:49;;;;;;;12.57;2.15;;;12.50;99.90;;;;;;5046059;28;20045;-67
2024/03/13 11:15:29;;;;;;;7.38;1.40;;;12.60;99.90;;;;;;5045298;28;20049;-66
2024/03/13 11:17:57;;;;;;;7.18;1.50;;;12.60;99.90;;;;;;5043397;28;20041;-66
2024/03/13 11:20:25;;;;;;;8.65;1.65;;;12.60;99.90;;;;;;5043416;28;20053;-67
2024/03/13 11:23:19;;;;;;;13.57;2.15;;;12.70;99.90;;;;;;5044605;28;20057;-66
2024/03/13 11:25:49;;;;;;;15.68;2.45;;;12.60;99.90;;;;;;5044005;28;20107;-66
2024/03/13 11:28:27;;;;;;;5.28;1.02;;;12.70;99.90;;;;;;5041248;28;20565;-66
2024/03/13 11:30:54;;;;;;;11.10;1.83;;;12.80;99.90;;;;;;5043598;28;20048;-66
2024/03/13 11:33:23;;;;;;;12.75;1.50;;;12.80;99.90;;;;;;5043922;28;20286;-66
2024/03/13 11:35:53;;;;;;;7.90;1.42;;;12.80;99.90;;;;;;5043886;28;20148;-66
2024/03/13 11:38:20;;;;;;;12.32;3.33;;;12.90;99.90;;;;;;5043976;28;20104;-66
2024/03/13 11:40:46;;;;;;;8.57;1.30;;;12.80;99.90;;;;;;5043999;28;20044;-66
2024/03/13 11:43:21;;;;;;;5.43;1.38;;;12.80;99.90;;;;;;5043741;28;20045;-66
2024/03/13 11:45:48;;;;;;;5.80;1.90;;;12.80;99.90;;;;;;5043048;28;20397;-67
2024/03/13 11:48:15;;;;;;;9.10;1.25;;;12.70;99.90;;;;;;5060486;28;20057;-67
2024/03/13 11:51:00;;;;;;;5.20;1.08;;;12.70;99.90;;;;;;5044206;28;20107;-66
2024/03/13 11:53:34;;;;;;;7.50;1.38;;;12.60;99.90;;;;;;5037217;28;20482;-67
2024/03/13 11:56:20;;;;;;;3.45;1.23;;;12.60;99.90;;;;;;5038519;28;20040;-66
2024/03/13 11:58:47;;;;;;;7.03;1.08;;;12.60;99.90;;;;;;5052278;28;20045;-66
2024/03/13 12:01:14;;;;;;;10.93;1.98;;;12.60;99.90;;;;;;5039826;28;20045;-67
2024/03/13 12:03:44;;;;;;;7.78;1.20;;;12.60;99.90;;;;;;5039292;28;20052;-66
2024/03/13 12:06:23;;;;;;;7.57;1.67;;;12.60;99.90;;;;;;5022565;28;20145;-66
2024/03/13 12:08:52;;;;;;;7.35;2.50;;;12.60;99.90;;;;;;5046733;28;20045;-66
2024/03/13 12:11:20;;;;;;;9.80;1.92;;;12.60;99.90;;;;;;5040915;28;20045;-67
2024/03/13 12:13:46;;;;;;;9.95;1.75;;;12.60;99.90;;;;;;5045940;28;20063;-66
2024/03/13 12:16:14;;;;;;;7.47;1.48;;;12.60;99.90;;;;;;5042576;28;20531;-66
2024/03/13 12:18:48;;;;;;;4.00;1.38;;;12.70;99.90;;;;;;5048277;28;20044;-66
2024/03/13 12:21:15;;;;;;;7.40;2.22;;;12.70;99.90;;;;;;5043908;28;20131;-67
2024/03/13 12:23:42;;;;;;;8.32;1.42;;;12.70;99.90;;;;;;5049886;28;20044;-67
2024/03/13 12:26:09;;;;;;;7.70;2.38;;;12.70;99.90;;;;;;5049443;28;20107;-66
2024/03/13 12:28:36;;;;;;;11.82;1.25;;;12.70;99.90;;;;;;5030115;28;20045;-66
2024/03/13 12:31:04;;;;;;;16.17;2.05;;;12.70;99.90;;;;;;5038691;28;20056;-66
2024/03/13 12:33:38;;;;;;;7.30;1.70;;;12.70;99.90;;;;;;5045884;28;20218;-67
2024/03/13 12:36:06;;;;;;;6.43;2.10;;;12.70;99.90;;;;;;5043455;28;20049;-66
2024/03/13 12:38:36;;;;;;;12.32;2.30;;;12.70;99.90;;;;;;5044842;28;20037;-67
2024/03/13 12:41:07;;;;;;;11.43;1.92;;;12.70;99.90;;;;;;5040644;28;20085;-66
2024/03/13 12:43:34;;;;;;;7.30;1.65;;;12.70;99.90;;;;;;5046254;28;20191;-66
2024/03/13 12:46:02;;;;;;;8.63;1.75;;;12.60;99.90;;;;;;5038715;28;20412;-67
2024/03/13 12:48:30;;;;;;;5.82;2.03;;;12.70;99.90;;;;;;5047263;28;20088;-66
2024/03/13 12:50:58;;;;;;;8.55;1.42;;;12.70;99.90;;;;;;5047855;28;20380;-67
2024/03/13 12:53:27;;;;;;;5.43;1.48;;;12.70;99.90;;;;;;5048127;28;20364;-65
2024/03/13 12:55:54;;;;;;;11.00;2.03;;;12.70;99.90;;;;;;5047164;28;20053;-66
2024/03/13 12:58:22;;;;;;;7.47;1.67;;;12.70;99.90;;;;;;5047597;28;20424;-67
2024/03/13 13:00:49;;;;;;;6.63;1.42;;;12.80;99.90;;;;;;5046439;28;20082;-66
2024/03/13 13:03:16;;;;;;;5.05;1.35;;;12.80;99.90;;;;;;5046744;28;20442;-67
2024/03/13 13:05:43;;;;;;;10.10;1.42;;;12.90;99.90;;;;;;5045192;28;20078;-65
2024/03/13 13:08:10;;;;;;;9.63;1.70;;;12.90;99.90;;;;;;5044209;28;20083;-65
2024/03/13 13:10:40;;;;;;;8.35;1.63;;;13.00;99.90;;;;;;5047447;28;20116;-66
2024/03/13 13:13:07;;;;;;;13.32;1.95;;;13.00;99.90;;;;;;5044400;28;20496;-66
2024/03/13 13:15:35;;;;;;;8.65;1.42;;;13.10;99.90;;;;;;5041184;28;20060;-65